Pocahontas, Virginia
Current Conditions -  °F | °C
As of 7:52 PM on Friday 19 Dec 2014 (Local Time) from KBLF Reporting Station
Clear Clear  
Wind Chill: 23°   Ceiling: Unl
Heat Index: 30°   Visibility: 10mi
Dew Point: 22°   Wind: 7mph
Humidity: 72%   Direction: 290°WNW
Pressure: 30.16"   Gusts: NA
Location:  37.3°N, 81.34°W
Report Text: KBLF 200052Z AUTO 29006KT 10SM CLR M01/M06 A3016 RMK AO2 SLP235 T10111056
Loading
Personal Weather Stations






























Interactive Weather Map New forecast layout! Learn more

10-Day Weather Forecast

Advertisements
Track Severe Weather on mobile